IBE37J LEAL-LOWW
Flight info
| Callsign | IBE37J |
|---|---|
| Flight time | N/A |
| Altitude | 38000 |
| Route | MITOS3A/10 MITOS N851 ISTER DCT NIVDA DCT OMEDA DCT RAPUR DCT TORTU DCT ERTEV/N0456F390 DCT ARALD DCT ABTAN ABTAN2W |
| Aircraft | A20N/M-SDE2E3FGHIRWXY/LB1 |
Departure
| Time | N/A |
|---|---|
| Airport | Alicante-Elche Miguel Hernández Airport (LEAL) |
Arrival
| Time | 2026-04-22 20:04 |
|---|---|
| Airport | Vienna International Airport (LOWW) |
| Time | Latitude | Longitude | Altitude | Speed | Heading |
|---|---|---|---|---|---|
| 2026-04-22 19:31 | 46.81553 | 13.63517 | 39239 ft | 443 kts | 59° |
| 2026-04-22 19:32 | 46.82482 | 13.66156 | 39245 ft | 443 kts | 60° |
| 2026-04-22 19:33 | 46.85297 | 13.74167 | 39087 ft | 442 kts | 60° |
| 2026-04-22 19:33 | 46.86697 | 13.78164 | 38656 ft | 440 kts | 60° |
| 2026-04-22 19:33 | 46.88134 | 13.82094 | 38037 ft | 438 kts | 59° |
| 2026-04-22 19:33 | 46.89470 | 13.86105 | 37403 ft | 438 kts | 63° |
| 2026-04-22 19:34 | 46.90654 | 13.90200 | 36749 ft | 437 kts | 64° |
| 2026-04-22 19:34 | 46.91798 | 13.94331 | 36115 ft | 437 kts | 67° |
| 2026-04-22 19:34 | 46.92783 | 13.98538 | 35491 ft | 437 kts | 69° |
| 2026-04-22 19:34 | 46.93692 | 14.02707 | 34891 ft | 436 kts | 69° |
| 2026-04-22 19:35 | 46.94612 | 14.06939 | 34269 ft | 435 kts | 69° |
| 2026-04-22 19:35 | 46.95538 | 14.11148 | 33552 ft | 434 kts | 69° |
| 2026-04-22 19:35 | 46.96472 | 14.15346 | 32812 ft | 433 kts | 69° |
| 2026-04-22 19:35 | 46.97410 | 14.19536 | 32080 ft | 432 kts | 69° |
| 2026-04-22 19:36 | 46.98344 | 14.23709 | 31367 ft | 431 kts | 69° |
| 2026-04-22 19:36 | 46.99274 | 14.27865 | 30678 ft | 429 kts | 69° |
| 2026-04-22 19:36 | 47.00200 | 14.32011 | 30044 ft | 424 kts | 70° |
| 2026-04-22 19:36 | 47.01110 | 14.36098 | 29385 ft | 419 kts | 70° |
| 2026-04-22 19:37 | 47.02011 | 14.40153 | 28723 ft | 415 kts | 70° |
| 2026-04-22 19:37 | 47.02898 | 14.44150 | 28085 ft | 410 kts | 70° |
| 2026-04-22 19:37 | 47.03774 | 14.48103 | 27460 ft | 406 kts | 70° |
| 2026-04-22 19:37 | 47.04637 | 14.52011 | 26831 ft | 401 kts | 70° |
| 2026-04-22 19:38 | 47.05494 | 14.55893 | 26155 ft | 397 kts | 70° |
| 2026-04-22 19:38 | 47.06340 | 14.59732 | 25582 ft | 393 kts | 70° |
| 2026-04-22 19:38 | 47.07176 | 14.63535 | 24998 ft | 390 kts | 70° |
| 2026-04-22 19:38 | 47.07993 | 14.67256 | 24438 ft | 387 kts | 70° |
| 2026-04-22 19:39 | 47.08813 | 14.70999 | 23878 ft | 383 kts | 69° |
| 2026-04-22 19:39 | 47.09624 | 14.74708 | 23216 ft | 380 kts | 70° |
| 2026-04-22 19:39 | 47.10429 | 14.78395 | 22541 ft | 376 kts | 69° |
| 2026-04-22 19:39 | 47.11220 | 14.82029 | 21970 ft | 372 kts | 69° |
| 2026-04-22 19:40 | 47.12004 | 14.85634 | 21372 ft | 369 kts | 69° |
| 2026-04-22 19:40 | 47.12743 | 14.89041 | 20813 ft | 365 kts | 69° |
| 2026-04-22 19:40 | 47.13489 | 14.92482 | 20234 ft | 362 kts | 69° |
| 2026-04-22 19:40 | 47.14262 | 14.96057 | 19662 ft | 359 kts | 69° |
| 2026-04-22 19:41 | 47.15014 | 14.99544 | 19094 ft | 356 kts | 69° |
| 2026-04-22 19:41 | 47.15761 | 15.03002 | 18537 ft | 353 kts | 69° |
| 2026-04-22 19:41 | 47.16494 | 15.06409 | 18283 ft | 347 kts | 69° |
| 2026-04-22 19:41 | 47.17228 | 15.09824 | 18237 ft | 353 kts | 69° |
| 2026-04-22 19:42 | 47.17964 | 15.13252 | 18244 ft | 350 kts | 69° |
| 2026-04-22 19:42 | 47.18697 | 15.16670 | 18238 ft | 352 kts | 69° |
| 2026-04-22 19:42 | 47.19424 | 15.20063 | 18241 ft | 352 kts | 69° |
| 2026-04-22 19:42 | 47.20157 | 15.23495 | 18236 ft | 351 kts | 69° |
| 2026-04-22 19:43 | 47.21613 | 15.30335 | 18243 ft | 352 kts | 69° |
| 2026-04-22 19:43 | 47.22341 | 15.33764 | 18237 ft | 351 kts | 70° |
| 2026-04-22 19:43 | 47.23123 | 15.37162 | 18237 ft | 348 kts | 62° |
| 2026-04-22 19:44 | 47.24315 | 15.40252 | 18239 ft | 347 kts | 57° |
| 2026-04-22 19:44 | 47.25555 | 15.43305 | 18236 ft | 347 kts | 57° |
| 2026-04-22 19:44 | 47.26796 | 15.46354 | 18241 ft | 347 kts | 57° |
| 2026-04-22 19:44 | 47.28034 | 15.49399 | 18236 ft | 346 kts | 57° |
| 2026-04-22 19:45 | 47.29256 | 15.52411 | 18239 ft | 347 kts | 57° |
| 2026-04-22 19:45 | 47.30509 | 15.55505 | 18236 ft | 346 kts | 57° |
| 2026-04-22 19:45 | 47.31740 | 15.58554 | 18238 ft | 346 kts | 57° |
| 2026-04-22 19:45 | 47.32972 | 15.61606 | 18236 ft | 347 kts | 57° |
| 2026-04-22 19:46 | 47.34192 | 15.64633 | 18239 ft | 347 kts | 57° |
| 2026-04-22 19:46 | 47.35423 | 15.67691 | 18233 ft | 346 kts | 57° |
| 2026-04-22 19:46 | 47.36650 | 15.70743 | 18237 ft | 346 kts | 57° |
| 2026-04-22 19:46 | 47.37868 | 15.73779 | 18227 ft | 337 kts | 57° |
| 2026-04-22 19:47 | 47.39036 | 15.76697 | 18073 ft | 323 kts | 57° |
| 2026-04-22 19:47 | 47.40165 | 15.79518 | 17730 ft | 316 kts | 57° |
| 2026-04-22 19:47 | 47.41288 | 15.82321 | 17451 ft | 319 kts | 57° |
| 2026-04-22 19:47 | 47.42419 | 15.85144 | 17186 ft | 318 kts | 57° |
| 2026-04-22 19:48 | 47.43541 | 15.87953 | 16916 ft | 317 kts | 57° |
| 2026-04-22 19:48 | 47.44658 | 15.90749 | 16648 ft | 316 kts | 57° |
| 2026-04-22 19:48 | 47.45769 | 15.93537 | 16383 ft | 314 kts | 57° |
| 2026-04-22 19:48 | 47.46876 | 15.96315 | 16125 ft | 312 kts | 57° |
| 2026-04-22 19:49 | 47.47980 | 15.99089 | 15864 ft | 313 kts | 57° |
| 2026-04-22 19:49 | 47.49083 | 16.01864 | 15618 ft | 313 kts | 57° |
| 2026-04-22 19:49 | 47.50168 | 16.04596 | 15367 ft | 310 kts | 57° |
| 2026-04-22 19:49 | 47.51259 | 16.07348 | 15117 ft | 310 kts | 57° |
| 2026-04-22 19:50 | 47.52350 | 16.10101 | 14860 ft | 309 kts | 57° |
| 2026-04-22 19:50 | 47.53426 | 16.12820 | 14618 ft | 308 kts | 57° |
| 2026-04-22 19:50 | 47.54506 | 16.15554 | 14371 ft | 307 kts | 57° |
| 2026-04-22 19:50 | 47.55582 | 16.18277 | 14128 ft | 306 kts | 57° |
| 2026-04-22 19:51 | 47.56657 | 16.21000 | 13870 ft | 306 kts | 57° |
| 2026-04-22 19:51 | 47.57729 | 16.23722 | 13591 ft | 305 kts | 57° |
| 2026-04-22 19:51 | 47.58792 | 16.26421 | 13428 ft | 297 kts | 57° |
| 2026-04-22 19:51 | 47.59797 | 16.28980 | 13319 ft | 285 kts | 57° |
| 2026-04-22 19:52 | 47.60780 | 16.31486 | 13020 ft | 278 kts | 57° |
| 2026-04-22 19:52 | 47.61748 | 16.33953 | 12743 ft | 278 kts | 57° |
| 2026-04-22 19:52 | 47.62727 | 16.36444 | 12483 ft | 280 kts | 57° |
| 2026-04-22 19:52 | 47.63699 | 16.38919 | 12220 ft | 276 kts | 57° |
| 2026-04-22 19:53 | 47.64668 | 16.41390 | 11949 ft | 277 kts | 57° |
| 2026-04-22 19:53 | 47.65851 | 16.43591 | 11700 ft | 271 kts | 41° |
| 2026-04-22 19:53 | 47.67231 | 16.45503 | 11456 ft | 272 kts | 40° |
| 2026-04-22 19:53 | 47.68617 | 16.47412 | 11191 ft | 271 kts | 40° |
| 2026-04-22 19:54 | 47.69996 | 16.49312 | 10937 ft | 270 kts | 40° |
| 2026-04-22 19:54 | 47.71390 | 16.51176 | 10689 ft | 268 kts | 34° |
| 2026-04-22 19:54 | 47.72963 | 16.52640 | 10337 ft | 267 kts | 29° |
| 2026-04-22 19:54 | 47.74530 | 16.54024 | 9960 ft | 265 kts | 28° |
| 2026-04-22 19:55 | 47.76115 | 16.55415 | 9521 ft | 264 kts | 28° |
| 2026-04-22 19:55 | 47.77695 | 16.56805 | 9111 ft | 263 kts | 28° |
| 2026-04-22 19:55 | 47.79262 | 16.58189 | 8723 ft | 261 kts | 28° |
| 2026-04-22 19:55 | 47.80815 | 16.59566 | 8315 ft | 259 kts | 28° |
| 2026-04-22 19:56 | 47.82354 | 16.60932 | 7917 ft | 258 kts | 28° |
| 2026-04-22 19:56 | 47.83900 | 16.62307 | 7527 ft | 256 kts | 28° |
| 2026-04-22 19:56 | 47.85427 | 16.63667 | 7137 ft | 255 kts | 28° |
| 2026-04-22 19:56 | 47.86937 | 16.65013 | 6882 ft | 249 kts | 28° |
| 2026-04-22 19:57 | 47.88396 | 16.66315 | 6744 ft | 238 kts | 28° |
| 2026-04-22 19:57 | 47.89791 | 16.67562 | 6606 ft | 228 kts | 28° |
| 2026-04-22 19:57 | 47.91102 | 16.68736 | 6521 ft | 217 kts | 28° |
| 2026-04-22 19:57 | 47.92367 | 16.69867 | 6430 ft | 206 kts | 28° |
| 2026-04-22 19:58 | 47.93564 | 16.70938 | 6337 ft | 195 kts | 28° |
| 2026-04-22 19:58 | 47.94726 | 16.71976 | 6035 ft | 196 kts | 28° |
| 2026-04-22 19:58 | 47.95950 | 16.72895 | 5693 ft | 196 kts | 17° |
| 2026-04-22 19:58 | 47.97260 | 16.73511 | 5307 ft | 200 kts | 15° |
| 2026-04-22 19:59 | 47.98567 | 16.74108 | 5134 ft | 193 kts | 15° |
| 2026-04-22 20:00 | 48.06267 | 16.73708 | 2926 ft | 197 kts | 310° |
| 2026-04-22 20:00 | 48.06739 | 16.71812 | 2706 ft | 203 kts | 288° |
| 2026-04-22 20:01 | 48.07098 | 16.69789 | 2427 ft | 198 kts | 294° |
| 2026-04-22 20:01 | 48.07541 | 16.67925 | 2271 ft | 179 kts | 296° |
| 2026-04-22 20:01 | 48.08027 | 16.66281 | 1968 ft | 167 kts | 302° |
| 2026-04-22 20:01 | 48.08520 | 16.64818 | 1734 ft | 152 kts | 302° |
| 2026-04-22 20:02 | 48.08900 | 16.63690 | 1541 ft | 141 kts | 302° |
| 2026-04-22 20:02 | 48.09257 | 16.62637 | 1382 ft | 140 kts | 300° |
| 2026-04-22 20:02 | 48.09675 | 16.61359 | 1195 ft | 130 kts | 298° |
| 2026-04-22 20:02 | 48.10050 | 16.60179 | 1032 ft | 125 kts | 297° |
| 2026-04-22 20:03 | 48.10424 | 16.58998 | 854 ft | 125 kts | 297° |
| 2026-04-22 20:03 | 48.10797 | 16.57865 | 688 ft | 121 kts | 298° |
| 2026-04-22 20:03 | 48.11168 | 16.56763 | 612 ft | 111 kts | 297° |
| 2026-04-22 20:03 | 48.11439 | 16.55937 | 601 ft | 66 kts | 297° |
| 2026-04-22 20:04 | 48.11577 | 16.55513 | 598 ft | 27 kts | 301° |
| 2026-04-22 20:04 | 48.11686 | 16.55306 | 593 ft | 28 kts | 316° |
| 2026-04-22 20:04 | 48.11826 | 16.55141 | 592 ft | 22 kts | 343° |
| 2026-04-22 20:04 | 48.11864 | 16.55143 | 593 ft | 0 kts | 27° |
| 2026-04-22 20:06 | 48.11879 | 16.55158 | 593 ft | 6 kts | 39° |
| 2026-04-22 20:07 | 48.11869 | 16.55256 | 594 ft | 15 kts | 117° |
| 2026-04-22 20:07 | 48.11805 | 16.55450 | 594 ft | 26 kts | 115° |
| 2026-04-22 20:07 | 48.11696 | 16.55783 | 600 ft | 6 kts | 116° |
| 2026-04-22 20:07 | 48.11692 | 16.55799 | 600 ft | 5 kts | 115° |
| 2026-04-22 20:08 | 48.11673 | 16.55855 | 601 ft | 13 kts | 116° |
| 2026-04-22 20:08 | 48.11694 | 16.55995 | 601 ft | 14 kts | 14° |
| 2026-04-22 20:08 | 48.11748 | 16.55907 | 599 ft | 14 kts | 293° |
| 2026-04-22 20:08 | 48.11814 | 16.55839 | 598 ft | 10 kts | 36° |
| 2026-04-22 20:09 | 48.11896 | 16.55898 | 594 ft | 16 kts | 24° |
| 2026-04-22 20:09 | 48.11985 | 16.55946 | 593 ft | 6 kts | 326° |
| 2026-04-22 20:09 | 48.12008 | 16.55866 | 592 ft | 8 kts | 288° |
| 2026-04-22 20:09 | 48.12010 | 16.55858 | 592 ft | 0 kts | 288° |